createdAt,value
2018-07-03T00:00:24.079Z,3.37
2018-07-03T00:02:52.037Z,3.30
2018-07-03T00:05:20.270Z,4.00
2018-07-03T00:07:48.465Z,3.67
2018-07-03T00:10:16.666Z,4.07
2018-07-03T00:12:44.894Z,4.50
2018-07-03T00:15:13.125Z,4.73
2018-07-03T00:17:41.154Z,3.80
2018-07-03T00:20:09.393Z,3.93
2018-07-03T00:22:37.604Z,2.90
2018-07-03T00:25:05.844Z,3.50
2018-07-03T00:27:34.067Z,2.90
2018-07-03T00:30:02.295Z,4.63
2018-07-03T00:32:30.513Z,3.63
2018-07-03T00:34:58.709Z,3.50
2018-07-03T00:37:26.962Z,3.20
2018-07-03T00:39:55.469Z,4.57
2018-07-03T00:42:23.658Z,3.57
2018-07-03T00:44:51.869Z,3.50
2018-07-03T00:47:20.102Z,3.13
2018-07-03T00:49:48.329Z,3.33
2018-07-03T00:52:16.544Z,3.40
2018-07-03T00:54:44.746Z,4.37
2018-07-03T00:57:12.970Z,3.30
2018-07-03T00:59:52.302Z,4.07
2018-07-03T01:02:20.572Z,3.90
2018-07-03T01:04:48.786Z,3.83
2018-07-03T01:07:17.030Z,4.87
2018-07-03T01:09:45.258Z,4.90
2018-07-03T01:12:13.477Z,3.47
2018-07-03T01:14:41.710Z,3.00
2018-07-03T01:17:09.935Z,3.17
2018-07-03T01:19:38.123Z,3.63
2018-07-03T01:22:06.390Z,3.47
2018-07-03T01:24:34.634Z,3.63
2018-07-03T01:27:02.873Z,3.40
2018-07-03T01:29:30.841Z,3.40
2018-07-03T01:31:59.129Z,4.20
2018-07-03T01:34:27.379Z,3.23
2018-07-03T01:36:55.646Z,3.27
2018-07-03T01:39:23.846Z,2.90
2018-07-03T01:41:52.077Z,3.63
2018-07-03T01:44:20.378Z,3.50
2018-07-03T01:46:48.574Z,3.40
2018-07-03T01:49:16.772Z,3.50
2018-07-03T01:51:44.975Z,3.07
2018-07-03T01:54:13.148Z,4.43
2018-07-03T01:56:41.349Z,3.80
2018-07-03T01:59:09.595Z,3.67
2018-07-03T02:01:37.806Z,3.23
2018-07-03T02:04:06.287Z,3.23
2018-07-03T02:06:34.548Z,3.63
2018-07-03T02:09:02.806Z,2.77
2018-07-03T02:11:31.046Z,3.07
2018-07-03T02:13:59.269Z,3.30
2018-07-03T02:16:27.491Z,3.90
2018-07-03T02:18:55.743Z,4.40
2018-07-03T02:21:23.950Z,4.47
2018-07-03T02:23:52.161Z,3.80
2018-07-03T02:26:20.390Z,3.87
2018-07-03T02:28:48.709Z,4.07
2018-07-03T02:31:16.993Z,4.10
2018-07-03T02:33:45.174Z,3.83
2018-07-03T02:36:13.361Z,3.27
2018-07-03T02:38:41.511Z,3.63
2018-07-03T02:41:09.691Z,3.53
2018-07-03T02:43:37.958Z,3.20
2018-07-03T02:46:06.277Z,4.13
2018-07-03T02:48:34.475Z,3.37
2018-07-03T02:51:02.902Z,3.47
2018-07-03T02:53:31.075Z,2.90
2018-07-03T02:55:59.291Z,2.40
2018-07-03T02:58:27.458Z,3.20
2018-07-03T03:00:55.642Z,2.70
2018-07-03T03:03:23.822Z,3.30
2018-07-03T03:05:52.015Z,3.73
2018-07-03T03:08:20.246Z,4.03
2018-07-03T03:10:48.372Z,2.80
2018-07-03T03:13:16.746Z,3.03
2018-07-03T03:15:44.933Z,2.53
2018-07-03T03:18:13.119Z,3.40
2018-07-03T03:20:41.290Z,3.30
2018-07-03T03:23:09.466Z,3.20
2018-07-03T03:25:37.670Z,2.40
2018-07-03T03:28:05.594Z,2.63
2018-07-03T03:30:33.777Z,2.60
2018-07-03T03:33:01.963Z,2.63
2018-07-03T03:35:30.295Z,2.60
2018-07-03T03:37:58.507Z,2.70
2018-07-03T03:40:26.702Z,2.80
2018-07-03T03:42:54.856Z,2.70
2018-07-03T03:45:23.023Z,2.77
2018-07-03T03:47:51.207Z,3.23
2018-07-03T03:50:19.380Z,3.33
2018-07-03T03:52:47.529Z,2.40
2018-07-03T03:55:15.727Z,2.50
2018-07-03T03:57:44.181Z,2.57
2018-07-03T04:00:12.372Z,2.70
2018-07-03T04:02:40.566Z,2.87
2018-07-03T04:05:08.791Z,2.40
2018-07-03T04:07:36.938Z,2.80
2018-07-03T04:10:05.158Z,3.17
2018-07-03T04:12:33.368Z,3.43
2018-07-03T04:15:01.549Z,3.90
2018-07-03T04:17:29.711Z,3.43
2018-07-03T04:19:59.612Z,3.10
2018-07-03T04:22:27.771Z,3.33
2018-07-03T04:24:55.975Z,3.47
2018-07-03T04:27:24.230Z,3.30
2018-07-03T04:29:52.438Z,3.07
2018-07-03T04:32:20.679Z,5.77
2018-07-03T04:34:48.881Z,3.03
2018-07-03T04:37:17.147Z,2.43
2018-07-03T04:39:45.370Z,2.93
2018-07-03T04:42:13.798Z,2.53
2018-07-03T04:44:42.026Z,3.20
2018-07-03T04:47:10.240Z,4.70
2018-07-03T04:49:38.443Z,4.10
2018-07-03T04:52:06.658Z,3.60
2018-07-03T04:54:34.880Z,3.20
2018-07-03T04:57:03.138Z,4.50
2018-07-03T04:59:31.326Z,5.27
2018-07-03T05:01:59.524Z,4.47
2018-07-03T05:04:28.444Z,3.60
2018-07-03T05:06:56.683Z,3.93
2018-07-03T05:09:24.879Z,3.10
2018-07-03T05:11:53.150Z,3.43
2018-07-03T05:14:21.365Z,3.03
2018-07-03T05:16:53.798Z,3.87
2018-07-03T05:19:22.078Z,3.30
2018-07-03T05:21:50.314Z,4.17
2018-07-03T05:24:18.510Z,3.10
2018-07-03T05:26:47.131Z,5.17
2018-07-03T05:29:15.344Z,3.10
2018-07-03T05:31:43.616Z,5.50
2018-07-03T05:34:11.854Z,7.30
2018-07-03T05:36:40.048Z,4.30
2018-07-03T05:39:10.231Z,4.03
2018-07-03T05:41:38.594Z,4.23
2018-07-03T05:44:06.850Z,5.70
2018-07-03T05:46:35.063Z,4.10
2018-07-03T05:49:03.447Z,3.10
2018-07-03T05:51:31.640Z,3.63
2018-07-03T05:53:59.875Z,4.17
2018-07-03T05:56:28.147Z,5.23
2018-07-03T05:58:56.334Z,4.30
2018-07-03T06:01:24.572Z,3.43
2018-07-03T06:03:52.800Z,3.50
2018-07-03T06:06:21.019Z,3.77
2018-07-03T06:08:49.227Z,3.77
2018-07-03T06:11:17.621Z,4.03
2018-07-03T06:13:45.848Z,4.10
2018-07-03T06:16:14.896Z,3.73
2018-07-03T06:18:42.834Z,3.40
2018-07-03T06:21:11.060Z,4.37
2018-07-03T06:23:39.323Z,3.17
2018-07-03T06:26:07.523Z,3.57
2018-07-03T06:28:35.954Z,4.40
2018-07-03T06:31:04.203Z,3.83
2018-07-03T06:33:32.702Z,3.73
2018-07-03T06:36:00.882Z,4.17
2018-07-03T06:38:29.134Z,4.20
2018-07-03T06:40:57.419Z,3.83
2018-07-03T06:43:25.623Z,4.17
2018-07-03T06:45:54.139Z,4.27
2018-07-03T06:48:22.382Z,6.83
2018-07-03T06:50:50.618Z,5.77
2018-07-03T06:53:18.947Z,5.70
2018-07-03T06:55:47.220Z,3.60
2018-07-03T06:58:15.438Z,3.20
2018-07-03T07:00:43.726Z,3.37
2018-07-03T07:03:11.923Z,7.17
2018-07-03T07:05:40.150Z,2.50
2018-07-03T07:08:08.428Z,2.53
2018-07-03T07:10:36.642Z,3.00
2018-07-03T07:13:04.922Z,2.30
2018-07-03T07:15:33.170Z,3.20
2018-07-03T07:18:01.407Z,2.93
2018-07-03T07:20:29.616Z,2.80
2018-07-03T07:22:57.894Z,3.10
2018-07-03T07:25:26.102Z,3.47
2018-07-03T07:27:54.349Z,2.50
2018-07-03T07:30:22.545Z,2.30
2018-07-03T07:32:50.791Z,2.73
2018-07-03T07:35:19.603Z,2.77
2018-07-03T07:37:47.790Z,2.23
2018-07-03T07:40:16.154Z,1.83
2018-07-03T07:42:44.469Z,1.70
2018-07-03T07:45:12.882Z,3.10
2018-07-03T07:47:41.102Z,2.00
2018-07-03T07:50:09.332Z,2.70
2018-07-03T07:52:37.538Z,2.40
2018-07-03T07:55:05.803Z,2.83
2018-07-03T07:57:34.094Z,2.10
2018-07-03T08:00:02.350Z,2.43
2018-07-03T08:02:30.658Z,4.07
2018-07-03T08:04:58.850Z,3.13
2018-07-03T08:07:27.114Z,2.30
2018-07-03T08:09:55.366Z,2.23
2018-07-03T08:12:23.585Z,1.97
2018-07-03T08:14:51.837Z,2.10
2018-07-03T08:17:20.092Z,1.93
2018-07-03T08:19:48.367Z,2.60
2018-07-03T08:22:16.667Z,2.20
2018-07-03T08:24:44.930Z,1.73
2018-07-03T08:27:13.164Z,2.50
2018-07-03T08:29:41.409Z,2.03
2018-07-03T08:32:09.655Z,2.53
2018-07-03T08:34:37.858Z,1.93
2018-07-03T08:37:06.167Z,2.17
2018-07-03T08:39:34.438Z,2.83
2018-07-03T08:42:02.757Z,2.13
2018-07-03T08:44:31.017Z,1.20
2018-07-03T08:46:59.419Z,2.37
2018-07-03T08:49:27.683Z,2.13
2018-07-03T08:51:55.998Z,2.10
2018-07-03T08:54:24.729Z,1.87
2018-07-03T08:56:53.099Z,1.63
2018-07-03T08:59:21.330Z,1.97
2018-07-03T09:01:49.755Z,2.33
2018-07-03T09:04:18.191Z,1.83
2018-07-03T09:06:46.142Z,1.70
2018-07-03T09:09:14.437Z,2.10
2018-07-03T09:11:42.667Z,1.70
2018-07-03T09:14:10.900Z,1.50
2018-07-03T09:16:39.365Z,1.93
2018-07-03T09:19:07.684Z,2.20
2018-07-03T09:21:37.087Z,1.83
2018-07-03T09:24:05.354Z,1.60
2018-07-03T09:26:33.610Z,1.17
2018-07-03T09:29:01.566Z,2.10
2018-07-03T09:31:29.865Z,2.13
2018-07-03T09:33:58.127Z,2.53
2018-07-03T09:36:26.433Z,2.40
2018-07-03T09:38:55.307Z,1.80
2018-07-03T09:41:23.831Z,1.87
2018-07-03T09:43:52.146Z,2.40
2018-07-03T09:46:20.499Z,2.37
2018-07-03T09:48:48.865Z,1.73
2018-07-03T09:51:17.092Z,1.30
2018-07-03T09:53:45.136Z,2.87
2018-07-03T09:56:13.441Z,1.33
2018-07-03T09:58:41.721Z,1.90
2018-07-03T10:01:15.248Z,1.30
2018-07-03T10:03:43.570Z,2.00
2018-07-03T10:06:12.007Z,1.80
2018-07-03T10:08:40.573Z,1.20
2018-07-03T10:11:08.914Z,1.40
2018-07-03T10:13:37.217Z,1.80
2018-07-03T10:16:05.693Z,1.40
2018-07-03T10:18:34.013Z,2.77
2018-07-03T10:21:02.406Z,2.20
2018-07-03T10:23:30.706Z,1.30
2018-07-03T10:25:59.946Z,1.37
2018-07-03T10:28:28.258Z,1.73
2018-07-03T10:30:56.587Z,2.40
2018-07-03T10:33:24.898Z,1.97
2018-07-03T10:35:53.140Z,1.43
2018-07-03T10:38:21.615Z,2.00
2018-07-03T10:40:49.902Z,2.50
2018-07-03T10:43:18.200Z,4.10
2018-07-03T10:45:46.474Z,2.23
2018-07-03T10:48:14.789Z,3.03
2018-07-03T10:50:43.244Z,1.80
2018-07-03T10:53:11.524Z,1.60
2018-07-03T10:55:39.818Z,1.43
2018-07-03T10:58:08.098Z,1.60
2018-07-03T11:00:36.421Z,1.33
2018-07-03T11:03:04.902Z,1.63
2018-07-03T11:05:33.311Z,1.53
2018-07-03T11:08:01.548Z,2.70
2018-07-03T11:10:29.858Z,1.50
2018-07-03T11:12:58.190Z,1.70
2018-07-03T11:15:26.203Z,2.03
2018-07-03T11:17:54.497Z,1.60
2018-07-03T11:20:22.802Z,2.43
2018-07-03T11:22:51.131Z,3.03
2018-07-03T11:25:19.390Z,1.40
2018-07-03T11:27:47.603Z,1.20
2018-07-03T11:30:15.858Z,2.33
2018-07-03T11:32:44.166Z,1.33
2018-07-03T11:35:12.379Z,2.03
2018-07-03T11:37:40.392Z,1.83
2018-07-03T11:40:08.580Z,1.40
2018-07-03T11:42:36.790Z,1.60
2018-07-03T11:45:05.389Z,2.53
2018-07-03T11:47:33.618Z,1.77
2018-07-03T11:50:02.912Z,1.50
2018-07-03T11:52:31.164Z,1.37
2018-07-03T11:54:59.414Z,1.33
2018-07-03T11:57:27.361Z,1.43
2018-07-03T11:59:55.605Z,1.23
2018-07-03T12:02:23.827Z,1.30
2018-07-03T12:04:52.075Z,2.40
2018-07-03T12:07:20.453Z,1.20
2018-07-03T12:09:48.714Z,1.40
2018-07-03T12:12:17.033Z,1.43
2018-07-03T12:14:45.601Z,1.43
2018-07-03T12:17:13.955Z,2.03
2018-07-03T12:19:43.065Z,1.53
2018-07-03T12:22:11.223Z,1.70
2018-07-03T12:24:39.522Z,1.57
2018-07-03T12:27:07.783Z,1.30
2018-07-03T12:29:36.063Z,1.77
2018-07-03T12:32:04.375Z,1.43
2018-07-03T12:34:33.214Z,1.60
2018-07-03T12:37:02.319Z,1.30
2018-07-03T12:39:30.599Z,1.60
2018-07-03T12:41:58.892Z,1.13
2018-07-03T12:44:27.833Z,1.57
2018-07-03T12:46:56.091Z,1.50
2018-07-03T12:49:24.329Z,2.00
2018-07-03T12:51:52.798Z,1.90
2018-07-03T12:54:21.072Z,2.03
2018-07-03T12:56:50.094Z,1.63
2018-07-03T12:59:18.310Z,1.70
2018-07-03T13:01:46.512Z,1.37
2018-07-03T13:04:14.799Z,1.70
2018-07-03T13:06:43.685Z,1.87
2018-07-03T13:09:12.606Z,1.50
2018-07-03T13:11:40.812Z,1.30
2018-07-03T13:14:09.339Z,1.77
2018-07-03T13:16:38.399Z,1.50
2018-07-03T13:19:06.690Z,1.50
2018-07-03T13:21:34.972Z,2.03
2018-07-03T13:24:03.531Z,1.43
2018-07-03T13:26:32.388Z,1.17
2018-07-03T13:29:00.886Z,1.47
2018-07-03T13:31:29.294Z,1.63
2018-07-03T13:33:57.987Z,1.30
2018-07-03T13:36:26.535Z,1.60
2018-07-03T13:38:54.747Z,1.47
2018-07-03T13:41:23.102Z,1.60
2018-07-03T13:43:52.133Z,1.60
2018-07-03T13:46:20.376Z,3.90
2018-07-03T13:48:48.748Z,1.60
2018-07-03T13:51:17.076Z,1.97
2018-07-03T13:53:45.685Z,1.90
2018-07-03T13:56:13.927Z,2.50
2018-07-03T13:58:43.202Z,2.13
2018-07-03T14:01:11.461Z,2.07
2018-07-03T14:03:40.458Z,1.97
2018-07-03T14:06:08.744Z,1.90
2018-07-03T14:08:37.037Z,1.60
2018-07-03T14:11:05.259Z,1.90
2018-07-03T14:13:33.506Z,1.77
2018-07-03T14:16:01.814Z,1.73
2018-07-03T14:18:30.067Z,2.07
2018-07-03T14:20:59.298Z,1.40
2018-07-03T14:23:28.485Z,1.70
2018-07-03T14:25:56.694Z,1.83
2018-07-03T14:28:24.894Z,1.53
2018-07-03T14:30:53.142Z,1.93
2018-07-03T14:33:21.652Z,1.63
2018-07-03T14:35:49.898Z,1.60
2018-07-03T14:38:18.130Z,1.60
2018-07-03T14:40:46.369Z,1.27
2018-07-03T14:43:14.826Z,1.53
2018-07-03T14:45:43.713Z,1.60
2018-07-03T14:48:11.994Z,1.87
2018-07-03T14:50:40.216Z,2.30
2018-07-03T14:53:08.439Z,1.90
2018-07-03T14:55:36.719Z,2.10
2018-07-03T14:58:04.988Z,2.27
2018-07-03T15:00:33.207Z,2.67
2018-07-03T15:03:01.450Z,3.30
2018-07-03T15:05:29.883Z,3.33
2018-07-03T15:07:58.124Z,3.63
2018-07-03T15:10:26.790Z,4.17
2018-07-03T15:12:55.731Z,4.53
2018-07-03T15:15:23.949Z,4.83
2018-07-03T15:17:52.203Z,4.50
2018-07-03T15:20:20.459Z,4.90
2018-07-03T15:22:48.650Z,4.80
2018-07-03T15:25:16.878Z,7.20
2018-07-03T15:27:45.257Z,5.20
2018-07-03T15:30:16.539Z,5.10
2018-07-03T15:32:44.751Z,5.10
2018-07-03T15:35:13.032Z,4.90
2018-07-03T15:37:41.335Z,6.87
2018-07-03T15:40:09.591Z,5.30
2018-07-03T15:42:37.815Z,4.90
2018-07-03T15:45:09.482Z,4.70
2018-07-03T15:47:37.577Z,5.43
2018-07-03T15:50:06.844Z,5.00
2018-07-03T15:52:35.347Z,4.83
2018-07-03T15:55:03.738Z,4.47
2018-07-03T15:57:31.963Z,5.20
2018-07-03T16:00:00.297Z,4.20
2018-07-03T16:02:28.674Z,4.67
2018-07-03T16:05:11.663Z,3.77
2018-07-03T16:09:50.955Z,4.50
2018-07-03T16:12:19.583Z,4.20
2018-07-03T16:14:47.790Z,3.67
2018-07-03T16:17:16.181Z,4.20
2018-07-03T16:19:49.799Z,4.40
2018-07-03T16:22:18.060Z,4.70
2018-07-03T16:24:46.336Z,4.20
2018-07-03T16:27:14.549Z,4.40
2018-07-03T16:29:42.778Z,4.57
2018-07-03T16:32:10.985Z,4.67
2018-07-03T16:34:39.691Z,4.27
2018-07-03T16:37:07.987Z,4.33
2018-07-03T16:39:36.198Z,4.57
2018-07-03T16:42:04.472Z,3.90
2018-07-03T16:44:32.739Z,4.20
2018-07-03T16:47:00.965Z,4.20
2018-07-03T16:49:29.185Z,4.33
2018-07-03T16:51:57.434Z,4.47
2018-07-03T16:54:25.671Z,4.37
2018-07-03T16:56:53.972Z,3.37
2018-07-03T16:59:22.214Z,4.70
2018-07-03T17:01:50.465Z,4.20
2018-07-03T17:04:18.755Z,4.20
2018-07-03T17:06:47.028Z,3.73
2018-07-03T17:09:15.256Z,4.10
2018-07-03T17:11:43.490Z,4.80
2018-07-03T17:14:11.914Z,4.90
2018-07-03T17:16:40.344Z,4.97
2018-07-03T17:19:14.105Z,4.50
2018-07-03T17:21:42.421Z,4.40
2018-07-03T17:24:10.654Z,5.13
2018-07-03T17:26:38.645Z,5.03
2018-07-03T17:29:07.002Z,5.00
2018-07-03T17:31:35.334Z,4.97
2018-07-03T17:34:03.702Z,4.63
2018-07-03T17:36:31.890Z,4.20
2018-07-03T17:39:08.639Z,4.87
2018-07-03T17:41:47.994Z,4.20
2018-07-03T17:44:31.290Z,4.60
2018-07-03T17:46:59.528Z,4.20
2018-07-03T17:49:27.854Z,4.17
2018-07-03T17:51:56.042Z,4.77
2018-07-03T17:54:24.271Z,4.40
2018-07-03T17:56:52.466Z,4.40
2018-07-03T17:59:20.534Z,4.67
2018-07-03T18:01:48.814Z,4.90
2018-07-03T18:04:17.010Z,3.60
2018-07-03T18:06:45.266Z,4.80
2018-07-03T18:09:13.735Z,4.00
2018-07-03T18:11:41.713Z,4.30
2018-07-03T18:14:10.085Z,4.30
2018-07-03T18:16:38.150Z,4.20
2018-07-03T18:19:11.854Z,4.03
2018-07-03T18:21:39.931Z,4.07
2018-07-03T18:24:08.082Z,4.13
2018-07-03T18:26:36.386Z,4.33
2018-07-03T18:29:04.906Z,4.87
2018-07-03T18:31:33.192Z,4.13
2018-07-03T18:34:01.414Z,4.37
2018-07-03T18:36:29.752Z,4.27
2018-07-03T18:38:57.978Z,4.27
2018-07-03T18:41:26.339Z,4.37
2018-07-03T18:43:55.390Z,4.20
2018-07-03T18:46:23.688Z,4.07
2018-07-03T18:48:51.838Z,4.27
2018-07-03T18:51:20.193Z,4.20
2018-07-03T18:53:48.470Z,4.40
2018-07-03T18:56:16.721Z,6.17
2018-07-03T18:58:44.934Z,4.40
2018-07-03T19:01:13.174Z,4.80
2018-07-03T19:03:41.457Z,4.50
2018-07-03T19:06:09.876Z,5.00
2018-07-03T19:08:38.078Z,5.20
2018-07-03T19:11:06.594Z,12.10
2018-07-03T19:13:34.852Z,10.63
2018-07-03T19:16:03.106Z,9.67
2018-07-03T19:18:31.350Z,9.17
2018-07-03T19:20:59.576Z,4.93
2018-07-03T19:23:27.858Z,4.30
2018-07-03T19:25:55.857Z,6.63
2018-07-03T19:28:24.373Z,5.33
2018-07-03T19:30:52.583Z,7.40
2018-07-03T19:33:20.795Z,7.80
2018-07-03T19:35:49.038Z,4.97
2018-07-03T19:38:17.310Z,5.43
2018-07-03T19:40:45.570Z,6.60
2018-07-03T19:43:48.074Z,5.87
2018-07-03T19:46:16.325Z,5.20
2018-07-03T19:48:44.602Z,13.63
2018-07-03T19:51:12.850Z,11.27
2018-07-03T19:53:41.154Z,6.37
2018-07-03T19:56:09.381Z,11.37
2018-07-03T19:58:37.638Z,11.57
2018-07-03T20:01:05.851Z,13.47
2018-07-03T20:03:34.121Z,7.30
2018-07-03T20:06:02.366Z,9.93
2018-07-03T20:08:31.649Z,9.07
2018-07-03T20:11:00.035Z,9.23
2018-07-03T20:13:28.253Z,8.00
2018-07-03T20:15:57.098Z,6.70
2018-07-03T20:18:25.330Z,7.30
2018-07-03T20:20:53.565Z,6.70
2018-07-03T20:23:21.826Z,6.47
2018-07-03T20:25:50.043Z,5.87
2018-07-03T20:28:18.269Z,6.40
2018-07-03T20:30:46.226Z,5.33
2018-07-03T20:33:14.478Z,5.53
2018-07-03T20:35:42.667Z,5.40
2018-07-03T20:38:10.870Z,5.20
2018-07-03T20:40:50.811Z,5.87
2018-07-03T20:43:19.148Z,6.50
2018-07-03T20:45:47.403Z,5.20
2018-07-03T20:48:15.794Z,6.07
2018-07-03T20:50:44.036Z,8.03
2018-07-03T20:53:12.286Z,5.77
2018-07-03T20:55:40.512Z,7.27
2018-07-03T20:58:08.762Z,10.73
2018-07-03T21:00:37.056Z,11.50
2018-07-03T21:03:05.407Z,12.10
2018-07-03T21:05:33.375Z,13.50
2018-07-03T21:08:01.616Z,14.70
2018-07-03T21:10:29.940Z,10.43
2018-07-03T21:12:58.222Z,8.70
2018-07-03T21:15:26.518Z,7.60
2018-07-03T21:17:54.805Z,7.60
2018-07-03T21:20:23.048Z,6.90
2018-07-03T21:22:51.270Z,7.80
2018-07-03T21:25:19.521Z,7.60
2018-07-03T21:27:47.786Z,7.60
2018-07-03T21:30:15.992Z,6.70
2018-07-03T21:32:45.363Z,6.70
2018-07-03T21:35:13.778Z,6.87
2018-07-03T21:37:42.001Z,6.80
2018-07-03T21:40:10.211Z,7.10
2018-07-03T21:42:38.426Z,5.70
2018-07-03T21:45:06.912Z,6.77
2018-07-03T21:47:35.052Z,6.93
2018-07-03T21:50:03.485Z,7.00
2018-07-03T21:52:31.687Z,7.00
2018-07-03T21:54:59.933Z,6.90
2018-07-03T21:57:28.190Z,7.07
2018-07-03T21:59:56.200Z,9.10
2018-07-03T22:02:24.419Z,10.13
2018-07-03T22:04:52.635Z,12.10
2018-07-03T22:07:20.858Z,12.00
2018-07-03T22:09:51.282Z,12.83
2018-07-03T22:12:19.544Z,11.30
2018-07-03T22:14:47.822Z,15.70
2018-07-03T22:17:16.022Z,7.97
2018-07-03T22:19:44.257Z,9.43
2018-07-03T22:22:12.841Z,16.40
2018-07-03T22:24:40.966Z,14.93
2018-07-03T22:27:09.194Z,14.07
2018-07-03T22:29:37.388Z,13.00
2018-07-03T22:32:05.636Z,14.63
2018-07-03T22:34:33.835Z,10.60
2018-07-03T22:37:02.065Z,9.77
2018-07-03T22:39:30.378Z,10.00
2018-07-03T22:41:58.278Z,7.40
2018-07-03T22:44:26.569Z,7.00
2018-07-03T22:46:54.798Z,7.97
2018-07-03T22:49:22.992Z,7.23
2018-07-03T22:51:51.224Z,10.57
2018-07-03T22:54:19.458Z,12.70
2018-07-03T22:56:47.682Z,8.90
2018-07-03T22:59:15.904Z,10.00
2018-07-03T23:01:44.150Z,20.27
2018-07-03T23:04:12.463Z,24.60
2018-07-03T23:06:40.706Z,22.20
2018-07-03T23:09:08.910Z,14.80
2018-07-03T23:11:37.427Z,26.80
2018-07-03T23:14:05.654Z,7.53
2018-07-03T23:16:33.894Z,7.30
2018-07-03T23:19:02.111Z,6.57
2018-07-03T23:21:30.315Z,6.47
2018-07-03T23:23:58.562Z,8.40
2018-07-03T23:26:26.910Z,8.77
2018-07-03T23:28:55.253Z,10.30
2018-07-03T23:31:23.559Z,10.33
2018-07-03T23:33:51.666Z,13.80
2018-07-03T23:36:19.907Z,12.40
2018-07-03T23:38:48.199Z,22.57
2018-07-03T23:41:16.455Z,24.70
2018-07-03T23:43:44.696Z,13.00
2018-07-03T23:46:24.282Z,14.30
2018-07-03T23:49:03.834Z,13.23
2018-07-03T23:51:43.363Z,10.80
2018-07-03T23:54:22.990Z,13.90
2018-07-03T23:57:02.438Z,9.07
2018-07-03T23:59:41.968Z,15.70
